Time;durP1;ratioP1;P1;durP2;ratioP2;P2;SDS_P1;SDS_P2;PMS_P1;PMS_P2;Temp;Humidity;BMP_temperature;BMP_pressure;BME280_temperature;BME280_humidity;BME280_pressure;Samples;Min_cycle;Max_cycle;Signal;HPM_P1;HPM_P2
2023/03/26 00:01:24;;;;;;;6.18;1.05;;;;;;;9.07;89.56;100795.75;5035762;28;96810;-29
2023/03/26 00:03:56;;;;;;;7.10;1.25;;;;;;;9.10;88.76;100793.72;5034922;28;100857;-30
2023/03/26 00:06:25;;;;;;;3.50;0.88;;;;;;;9.08;88.92;100789.38;5036253;27;99164;-30
2023/03/26 00:08:51;;;;;;;6.47;1.05;;;;;;;9.08;88.52;100787.56;5035921;27;96613;-29
2023/03/26 00:11:19;;;;;;;10.50;1.20;;;;;;;9.04;88.84;100791.38;5035165;28;96888;-29
2023/03/26 00:13:45;;;;;;;5.78;1.13;;;;;;;9.07;89.19;100791.22;5034773;28;101362;-30
2023/03/26 00:16:12;;;;;;;6.93;1.50;;;;;;;9.08;88.68;100784.88;5035938;27;99084;-29
2023/03/26 00:18:39;;;;;;;5.18;1.40;;;;;;;9.07;88.82;100783.09;5036273;28;96470;-31
2023/03/26 00:21:06;;;;;;;3.83;0.93;;;;;;;9.08;88.88;100770.47;5035149;27;96864;-29
2023/03/26 00:23:33;;;;;;;3.58;1.20;;;;;;;9.10;89.13;100772.09;5034466;28;101290;-29
2023/03/26 00:25:59;;;;;;;8.02;1.02;;;;;;;9.13;88.93;100768.38;5035806;27;99203;-29
2023/03/26 00:28:26;;;;;;;10.30;1.60;;;;;;;9.14;88.87;100764.72;5035770;27;96817;-30
2023/03/26 00:31:00;;;;;;;8.68;1.33;;;;;;;9.14;88.60;100764.72;5034783;28;96948;-29
2023/03/26 00:33:27;;;;;;;2.95;1.10;;;;;;;9.13;89.00;100750.34;5033758;28;101357;-29
2023/03/26 00:35:57;;;;;;;7.80;1.48;;;;;;;9.12;89.18;100755.81;5034309;28;101389;-30
2023/03/26 00:38:24;;;;;;;4.20;1.17;;;;;;;9.10;88.95;100738.81;5036490;27;96646;-30
2023/03/26 00:40:50;;;;;;;5.00;0.82;;;;;;;9.09;89.70;100753.31;5034805;28;96805;-30
2023/03/26 00:43:20;;;;;;;5.63;1.52;;;;;;;9.10;88.64;100736.13;5034350;28;101460;-29
2023/03/26 00:45:50;;;;;;;3.83;0.68;;;;;;;9.14;88.64;100735.84;5033714;28;101556;-29
2023/03/26 00:48:16;;;;;;;6.55;1.17;;;;;;;9.12;88.20;100745.00;5034475;28;96691;-30
2023/03/26 00:50:44;;;;;;;4.35;1.10;;;;;;;9.08;88.32;100735.34;5034807;28;96801;-29
2023/03/26 00:53:13;;;;;;;1.27;0.65;;;;;;;9.08;88.63;100735.34;5034513;28;101267;-29
2023/03/26 00:55:43;;;;;;;4.40;0.65;;;;;;;9.03;89.24;100730.19;5034036;28;101366;-29
2023/03/26 00:58:10;;;;;;;8.70;1.60;;;;;;;9.02;88.89;100736.56;5033897;28;96626;-29
2023/03/26 01:00:40;;;;;;;5.65;0.80;;;;;;;8.98;89.22;100729.59;5034226;28;96900;-29
2023/03/26 01:03:10;;;;;;;2.97;1.08;;;;;;;8.97;89.29;100730.56;5035170;27;100336;-28
2023/03/26 01:05:51;;;;;;;5.60;0.90;;;;;;;8.95;90.02;100729.75;5033901;28;100599;-29
2023/03/26 01:08:29;;;;;;;5.63;1.17;;;;;;;8.90;90.51;100734.56;5034145;28;96683;-29
2023/03/26 01:11:04;;;;;;;7.03;1.15;;;;;;;8.88;90.41;100729.25;5034161;28;96774;-29
2023/03/26 01:13:34;;;;;;;1.35;0.77;;;;;;;8.86;90.33;100714.94;5035381;28;98016;-31
2023/03/26 01:16:00;;;;;;;6.60;1.73;;;;;;;8.85;89.90;100725.84;5035474;27;99305;-29
2023/03/26 01:18:32;;;;;;;6.93;1.17;;;;;;;8.83;90.83;100720.53;5033993;28;96472;-30
2023/03/26 01:21:04;;;;;;;6.65;1.45;;;;;;;8.83;90.54;100715.13;5034188;28;96549;-30
2023/03/26 01:23:43;;;;;;;4.38;0.90;;;;;;;8.80;90.96;100698.25;5033304;27;99173;-29
2023/03/26 01:26:23;;;;;;;2.78;0.98;;;;;;;8.84;90.45;100697.97;5033260;28;101367;-29
2023/03/26 01:28:58;;;;;;;6.63;0.82;;;;;;;8.86;90.66;100690.63;5035450;27;96605;-30
2023/03/26 01:31:46;;;;;;;12.90;1.45;;;;;;;8.86;90.84;100687.06;5033752;28;96692;-30
2023/03/26 01:34:23;;;;;;;2.95;0.70;;;;;;;8.88;90.61;100679.75;5035102;27;97513;-29
2023/03/26 01:37:03;;;;;;;7.82;1.08;;;;;;;8.87;91.14;100681.59;5033534;28;100969;-29
2023/03/26 01:39:48;;;;;;;11.77;1.35;;;;;;;8.88;90.94;100679.75;5034043;28;96699;-28
2023/03/26 01:42:26;;;;;;;7.07;1.30;;;;;;;8.89;90.80;100676.06;5035769;27;96527;-29
2023/03/26 01:44:58;;;;;;;5.22;1.00;;;;;;;8.88;91.00;100667.09;5033358;28;101357;-29
2023/03/26 01:47:24;;;;;;;;;;;;;;;8.87;90.74;100665.38;5033837;28;101342;-29
2023/03/26 01:49:50;;;;;;;6.55;0.73;;;;;;;8.86;90.98;100658.22;5034621;28;97460;-29
2023/03/26 01:52:21;;;;;;;3.47;1.13;;;;;;;8.89;90.71;100666.16;5035028;27;96735;-29
2023/03/26 01:54:46;;;;;;;5.47;1.30;;;;;;;8.87;90.31;100654.59;5033215;28;101741;-29
2023/03/26 01:57:36;;;;;;;7.72;0.80;;;;;;;8.87;90.21;100670.78;5032070;27;101169;-29
2023/03/26 02:00:34;;;;;;;8.38;1.30;;;;;;;8.85;89.68;100661.91;5035226;27;96713;-29
2023/03/26 02:03:16;;;;;;;3.30;0.60;;;;;;;8.84;91.26;100653.88;5033689;28;96837;-29
2023/03/26 02:05:49;;;;;;;3.45;0.85;;;;;;;8.80;90.72;100653.19;5032933;28;101191;-29
2023/03/26 02:08:41;;;;;;;4.25;1.25;;;;;;;8.80;90.31;100649.63;5033350;28;101271;-30
2023/03/26 02:11:11;;;;;;;4.40;0.93;;;;;;;8.72;92.07;100641.94;5034822;28;96762;-29
2023/03/26 02:13:38;;;;;;;4.25;1.23;;;;;;;8.68;91.95;100633.16;5035066;27;96596;-30
2023/03/26 02:16:06;;;;;;;3.03;1.13;;;;;;;8.66;90.84;100637.78;5032524;28;101428;-28
2023/03/26 02:18:37;;;;;;;12.13;1.67;;;;;;;8.68;91.22;100632.28;5032849;28;98869;-29
2023/03/26 02:21:11;;;;;;;8.15;1.08;;;;;;;8.64;91.03;100626.19;5034794;27;96588;-28
2023/03/26 02:23:39;;;;;;;4.47;0.93;;;;;;;8.65;91.35;100625.25;5034899;28;96613;-31
2023/03/26 02:26:09;;;;;;;4.10;0.63;;;;;;;8.66;91.90;100623.41;5032585;28;101085;-29
2023/03/26 02:28:35;;;;;;;6.00;1.40;;;;;;;8.65;91.52;100622.53;5033715;27;97806;-29
2023/03/26 02:31:01;;;;;;;9.68;1.33;;;;;;;8.64;90.99;100614.53;5033174;28;96572;-29
2023/03/26 02:33:28;;;;;;;6.35;1.15;;;;;;;8.66;91.35;100612.59;5034677;28;96772;-29
2023/03/26 02:35:55;;;;;;;4.22;0.75;;;;;;;8.68;91.16;100613.41;5032623;28;101367;-29
2023/03/26 02:38:24;;;;;;;2.80;0.85;;;;;;;8.65;91.65;100610.84;5032723;28;100702;-29
2023/03/26 02:40:49;;;;;;;3.10;0.80;;;;;;;8.67;91.31;100603.53;5032556;28;96685;-28
2023/03/26 02:43:14;;;;;;;2.40;1.13;;;;;;;8.67;90.83;100600.84;5034098;28;96844;-29
2023/03/26 02:45:40;;;;;;;2.90;1.20;;;;;;;8.62;91.17;100602.94;5033988;28;102452;-29
2023/03/26 02:48:05;;;;;;;5.90;1.02;;;;;;;8.60;90.82;100597.59;5034035;27;97760;-30
2023/03/26 02:50:31;;;;;;;2.75;1.05;;;;;;;8.60;90.85;100588.66;5034504;27;96777;-29
2023/03/26 02:52:57;;;;;;;3.33;1.55;;;;;;;8.58;91.07;100590.56;5034169;27;96885;-29
2023/03/26 02:55:22;;;;;;;3.22;0.85;;;;;;;8.57;91.10;100592.41;5033950;27;97865;-29
2023/03/26 02:57:47;;;;;;;6.28;1.38;;;;;;;8.56;90.94;100582.56;5034090;27;97797;-29
2023/03/26 03:00:13;;;;;;;1.05;0.80;;;;;;;8.56;91.20;100584.41;5034364;28;96538;-29
2023/03/26 03:02:38;;;;;;;0.45;0.28;;;;;;;8.53;91.21;100582.72;5034352;28;96729;-30
2023/03/26 03:05:04;;;;;;;3.38;1.27;;;;;;;8.50;91.50;100582.91;5033519;27;97797;-29
2023/03/26 03:07:30;;;;;;;1.65;0.32;;;;;;;8.48;91.95;100574.03;5034524;27;97992;-29
2023/03/26 03:10:01;;;;;;;2.05;0.98;;;;;;;8.46;92.21;100568.72;5036234;28;96856;-30
2023/03/26 03:12:26;;;;;;;1.98;0.85;;;;;;;8.47;91.79;100565.06;5037345;27;96698;-29
2023/03/26 03:14:52;;;;;;;2.22;1.00;;;;;;;8.45;91.95;100560.72;5037272;27;97572;-29
2023/03/26 03:17:19;;;;;;;5.70;1.27;;;;;;;8.43;92.35;100566.19;5037308;27;97424;-30
2023/03/26 03:19:45;;;;;;;4.90;0.82;;;;;;;8.43;91.98;100557.22;5037279;28;96580;-28
2023/03/26 03:22:10;;;;;;;4.13;1.13;;;;;;;8.42;92.34;100552.81;5037484;27;96723;-29
2023/03/26 03:24:35;;;;;;;3.95;0.80;;;;;;;8.40;91.78;100552.00;5037293;27;97889;-29
2023/03/26 03:27:01;;;;;;;4.85;1.02;;;;;;;8.38;91.45;100546.66;5036118;27;99671;-29
2023/03/26 03:29:27;;;;;;;1.67;0.82;;;;;;;8.40;91.79;100542.09;5036782;27;96596;-29
2023/03/26 03:31:52;;;;;;;4.60;1.05;;;;;;;8.41;91.80;100537.56;5035607;28;96910;-29
2023/03/26 03:34:18;;;;;;;6.25;1.52;;;;;;;8.42;91.60;100536.59;5036761;27;99729;-29
2023/03/26 03:36:47;;;;;;;5.15;1.30;;;;;;;8.41;91.67;100538.41;5036864;27;101225;-29
2023/03/26 03:39:14;;;;;;;3.25;1.27;;;;;;;8.38;92.11;100545.78;5035581;28;96649;-30
2023/03/26 03:41:39;;;;;;;2.40;1.05;;;;;;;8.40;92.03;100536.69;5035549;27;96837;-29
2023/03/26 03:44:05;;;;;;;8.93;1.42;;;;;;;8.41;92.57;100542.94;5036828;27;97582;-29
2023/03/26 03:46:30;;;;;;;5.32;1.60;;;;;;;8.40;91.81;100531.28;5037242;27;97244;-29
2023/03/26 03:48:56;;;;;;;1.83;0.73;;;;;;;8.41;91.72;100533.00;5036894;27;96556;-29
2023/03/26 03:51:22;;;;;;;6.88;1.25;;;;;;;8.41;92.08;100530.31;5037001;28;96727;-29
2023/03/26 03:53:48;;;;;;;3.80;1.08;;;;;;;8.38;91.71;100522.38;5035782;27;99202;-28
2023/03/26 03:56:16;;;;;;;0.38;0.38;;;;;;;8.42;91.93;100518.59;5034954;28;100949;-29
2023/03/26 03:58:44;;;;;;;4.18;1.25;;;;;;;8.37;91.77;100511.69;5036675;27;96600;-29
2023/03/26 04:01:12;;;;;;;7.75;1.02;;;;;;;8.43;91.31;100514.91;5035419;28;96835;-29
2023/03/26 04:03:38;;;;;;;5.72;1.25;;;;;;;8.46;91.42;100508.47;5036238;27;99314;-29
2023/03/26 04:06:05;;;;;;;4.88;0.90;;;;;;;8.48;91.34;100512.81;5034910;28;100955;-31
2023/03/26 04:08:31;;;;;;;5.28;1.30;;;;;;;8.50;91.12;100500.09;5036515;27;96596;-29
2023/03/26 04:10:57;;;;;;;1.40;0.77;;;;;;;8.48;90.62;100496.59;5035494;28;96760;-29
2023/03/26 04:13:22;;;;;;;2.42;0.88;;;;;;;8.50;90.90;100497.41;5036264;27;98099;-29
2023/03/26 04:15:48;;;;;;;4.57;1.50;;;;;;;8.49;90.59;100490.28;5036315;28;97907;-30
2023/03/26 04:18:13;;;;;;;2.25;1.00;;;;;;;8.51;90.51;100484.78;5036217;27;96464;-29
2023/03/26 04:20:45;;;;;;;2.10;0.73;;;;;;;8.50;90.89;100475.81;5035958;27;96753;-29
2023/03/26 04:23:14;;;;;;;4.25;0.77;;;;;;;8.48;91.26;100476.84;5034404;28;101176;-32
2023/03/26 04:25:47;;;;;;;5.30;1.27;;;;;;;8.49;91.01;100471.38;5035886;28;97829;-29
2023/03/26 04:28:25;;;;;;;5.72;1.27;;;;;;;8.49;90.92;100474.06;5035708;28;96836;-29
2023/03/26 04:30:53;;;;;;;1.00;0.60;;;;;;;8.48;91.18;100464.22;5036308;27;96661;-29
2023/03/26 04:33:19;;;;;;;4.03;1.45;;;;;;;8.51;90.96;100457.81;5034357;28;101572;-29
2023/03/26 04:35:47;;;;;;;4.53;1.17;;;;;;;8.51;91.19;100463.19;5035935;27;97161;-29
2023/03/26 04:38:15;;;;;;;3.97;0.68;;;;;;;8.51;91.12;100455.09;5034863;28;96697;-30
2023/03/26 04:40:42;;;;;;;3.08;0.82;;;;;;;8.50;91.23;100456.03;5034747;28;96802;-29
2023/03/26 04:43:12;;;;;;;2.90;0.85;;;;;;;8.49;91.31;100455.19;5033861;28;101120;-29
2023/03/26 04:45:38;;;;;;;2.78;0.90;;;;;;;8.49;91.32;100451.63;5035871;27;97795;-29
2023/03/26 04:48:06;;;;;;;3.53;0.98;;;;;;;8.47;91.40;100449.00;5034153;28;96648;-29
2023/03/26 04:50:31;;;;;;;6.28;0.95;;;;;;;8.48;91.49;100449.88;5034626;28;96932;-30
2023/03/26 04:52:57;;;;;;;1.60;0.65;;;;;;;8.44;91.21;100440.22;5035742;28;97964;-30
2023/03/26 04:55:40;;;;;;;1.25;0.70;;;;;;;8.44;91.10;100435.69;5035311;27;99126;-29
2023/03/26 04:58:08;;;;;;;3.00;1.08;;;;;;;8.43;91.72;100433.06;5035991;27;96600;-30
2023/03/26 05:00:33;;;;;;;6.53;1.25;;;;;;;8.40;91.49;100425.16;5034782;28;96833;-29
2023/03/26 05:03:00;;;;;;;3.70;0.70;;;;;;;8.40;90.97;100412.53;5035359;28;97565;-29
2023/03/26 05:05:26;;;;;;;5.50;1.10;;;;;;;8.35;91.73;100406.53;5035542;27;97790;-30
2023/03/26 05:07:53;;;;;;;2.15;1.02;;;;;;;8.35;91.86;100401.13;5033738;28;96592;-29
2023/03/26 05:10:20;;;;;;;5.07;1.27;;;;;;;8.34;91.89;100404.75;5034301;28;96844;-29
2023/03/26 05:12:46;;;;;;;5.93;1.02;;;;;;;8.29;92.12;100405.06;5035235;27;99424;-30
2023/03/26 05:15:12;;;;;;;4.82;0.85;;;;;;;8.27;92.17;100395.28;5033578;27;100681;-29
2023/03/26 05:17:40;;;;;;;3.47;0.93;;;;;;;8.25;92.88;100386.44;5034076;28;96574;-29
2023/03/26 05:20:22;;;;;;;5.15;1.27;;;;;;;8.23;91.94;100397.31;5034185;28;96804;-30
2023/03/26 05:22:48;;;;;;;5.57;1.13;;;;;;;8.16;92.53;100395.94;5035474;27;97317;-29
2023/03/26 05:25:15;;;;;;;4.28;1.58;;;;;;;8.13;94.26;100397.94;5033954;28;100875;-30
2023/03/26 05:27:41;;;;;;;3.25;1.30;;;;;;;8.07;94.06;100394.66;5034193;27;97546;-29
2023/03/26 05:30:07;;;;;;;3.85;1.15;;;;;;;8.11;93.72;100389.94;5035142;27;96782;-29
2023/03/26 05:32:33;;;;;;;5.75;1.48;;;;;;;8.10;93.39;100382.81;5032873;28;100435;-29
2023/03/26 05:34:59;;;;;;;1.98;0.98;;;;;;;8.09;93.35;100384.63;5035058;27;98353;-29
2023/03/26 05:37:29;;;;;;;4.70;1.20;;;;;;;8.10;93.27;100385.50;5033997;28;96552;-28
2023/03/26 05:39:56;;;;;;;3.63;1.23;;;;;;;8.08;93.88;100379.34;5035250;27;96596;-29
2023/03/26 05:42:22;;;;;;;2.92;0.65;;;;;;;8.06;93.48;100375.88;5033245;28;101295;-29
2023/03/26 05:44:47;;;;;;;6.65;1.40;;;;;;;8.10;93.08;100377.41;5033379;28;100864;-30
2023/03/26 05:47:13;;;;;;;4.28;1.40;;;;;;;8.08;93.03;100372.13;5035039;27;96571;-29
2023/03/26 05:49:38;;;;;;;3.92;0.95;;;;;;;8.08;93.24;100373.97;5035639;27;96732;-29
2023/03/26 05:52:04;;;;;;;8.48;1.35;;;;;;;8.06;93.42;100375.88;5034472;27;99237;-29
2023/03/26 05:54:29;;;;;;;2.78;1.35;;;;;;;8.00;94.60;100378.91;5033328;28;101050;-29
2023/03/26 05:56:56;;;;;;;2.80;1.35;;;;;;;7.98;94.52;100365.50;5034427;28;96624;-29
2023/03/26 05:59:22;;;;;;;3.58;1.33;;;;;;;7.92;94.95;100367.72;5033613;28;96821;-29
2023/03/26 06:01:49;;;;;;;6.50;1.90;;;;;;;7.86;95.95;100363.53;5034852;28;97449;-29
2023/03/26 06:04:16;;;;;;;5.53;1.63;;;;;;;7.92;95.07;100370.41;5033204;28;101323;-28
2023/03/26 06:06:41;;;;;;;6.32;1.25;;;;;;;7.96;94.43;100370.16;5033512;28;96630;-29
2023/03/26 06:09:07;;;;;;;1.35;0.90;;;;;;;7.95;95.42;100368.41;5034798;28;96763;-29
2023/03/26 06:11:33;;;;;;;6.07;1.58;;;;;;;7.97;94.40;100362.94;5034088;27;99763;-29
2023/03/26 06:13:59;;;;;;;1.35;0.98;;;;;;;7.96;94.22;100362.06;5034563;28;99377;-29
2023/03/26 06:16:24;;;;;;;2.58;1.27;;;;;;;7.97;94.81;100352.13;5033342;28;96535;-29
2023/03/26 06:18:50;;;;;;;1.55;1.08;;;;;;;7.93;94.38;100348.75;5034989;28;96789;-30
2023/03/26 06:21:17;;;;;;;8.43;1.20;;;;;;;7.99;94.61;100343.00;5032552;28;101373;-30
2023/03/26 06:23:43;;;;;;;4.30;1.42;;;;;;;7.99;94.13;100345.69;5032924;28;99719;-29
2023/03/26 06:26:08;;;;;;;2.00;1.10;;;;;;;7.97;93.81;100350.31;5032670;28;96788;-29
2023/03/26 06:28:35;;;;;;;3.55;1.00;;;;;;;7.95;94.60;100340.56;5034224;28;96890;-29
2023/03/26 06:31:00;;;;;;;10.57;1.33;;;;;;;7.97;94.33;100350.31;5033991;27;99442;-30
2023/03/26 06:33:26;;;;;;;1.70;0.93;;;;;;;8.00;94.54;100343.84;5034095;28;97341;-28
2023/03/26 06:35:52;;;;;;;2.55;1.20;;;;;;;8.00;95.45;100339.31;5034472;27;96684;-29
2023/03/26 06:38:17;;;;;;;4.40;1.45;;;;;;;7.99;94.38;100336.75;5034859;27;96883;-29
2023/03/26 06:40:43;;;;;;;3.90;1.30;;;;;;;8.00;94.45;100339.31;5032425;28;100822;-30
2023/03/26 06:43:08;;;;;;;2.10;0.98;;;;;;;8.00;94.12;100331.22;5036078;28;98034;-29
2023/03/26 06:45:34;;;;;;;1.08;0.82;;;;;;;8.04;93.93;100340.03;5037385;27;96539;-29
2023/03/26 06:47:59;;;;;;;6.70;1.00;;;;;;;8.08;94.09;100336.19;5037619;27;96808;-29
2023/03/26 06:50:26;;;;;;;2.05;1.00;;;;;;;8.04;93.94;100329.25;5037683;27;97454;-31
2023/03/26 06:52:55;;;;;;;1.88;1.08;;;;;;;7.98;95.69;100334.97;5037392;28;99392;-30
2023/03/26 06:55:21;;;;;;;3.50;1.15;;;;;;;7.96;95.64;100336.91;5036215;28;96759;-29
2023/03/26 06:57:50;;;;;;;2.92;1.08;;;;;;;8.01;94.93;100335.69;5037747;27;96815;-29
2023/03/26 07:00:16;;;;;;;2.00;0.95;;;;;;;8.02;94.99;100342.81;5035822;28;101129;-29
2023/03/26 07:02:42;;;;;;;4.70;1.50;;;;;;;8.05;95.25;100337.22;5036275;28;99025;-29
2023/03/26 07:05:08;;;;;;;4.78;0.82;;;;;;;8.04;95.64;100337.34;5038162;27;96833;-28
2023/03/26 07:07:33;;;;;;;4.43;1.17;;;;;;;8.03;95.17;100339.16;5037566;27;96768;-29
2023/03/26 07:09:58;;;;;;;8.27;1.10;;;;;;;8.01;95.59;100333.00;5036778;27;97428;-29
2023/03/26 07:12:25;;;;;;;7.65;1.30;;;;;;;8.05;95.24;100336.34;5037409;27;98226;-29
2023/03/26 07:14:50;;;;;;;5.82;1.10;;;;;;;8.05;94.72;100330.97;5036109;28;96708;-29
2023/03/26 07:17:16;;;;;;;6.68;0.98;;;;;;;8.12;94.44;100323.38;5037607;27;96769;-29
2023/03/26 07:19:41;;;;;;;4.47;1.48;;;;;;;8.16;94.75;100330.34;5037054;27;98766;-29
2023/03/26 07:22:14;;;;;;;17.30;7.82;;;;;;;8.13;95.54;100331.41;5035553;28;99854;-29
2023/03/26 07:24:40;;;;;;;10.65;6.40;;;;;;;8.16;94.97;100333.03;5035973;28;96538;-29
2023/03/26 07:27:18;;;;;;;10.38;6.65;;;;;;;8.15;95.09;100324.09;5036733;27;96730;-29
2023/03/26 07:30:12;;;;;;;6.63;4.57;;;;;;;8.20;95.20;100329.16;5019450;28;100827;-29
2023/03/26 07:32:51;;;;;;;7.05;2.45;;;;;;;8.18;94.91;100328.41;5036494;27;99844;-29
2023/03/26 07:35:39;;;;;;;8.20;1.70;;;;;;;8.25;95.11;100332.50;5035270;28;96660;-30
2023/03/26 07:38:35;;;;;;;4.05;0.93;;;;;;;8.27;94.44;100323.34;5037382;27;96737;-28
2023/03/26 07:41:21;;;;;;;4.10;1.33;;;;;;;8.26;94.52;100324.28;5035342;28;100862;-28
2023/03/26 07:44:10;;;;;;;1.98;1.13;;;;;;;8.30;94.06;100327.69;5035323;28;101289;-29
2023/03/26 07:46:36;;;;;;;4.13;1.02;;;;;;;8.30;94.75;100320.44;5035729;28;96699;-29
2023/03/26 07:49:03;;;;;;;2.80;1.10;;;;;;;8.33;94.86;100327.47;5036875;27;96796;-29
2023/03/26 07:51:29;;;;;;;4.10;1.13;;;;;;;8.35;94.18;100330.97;5036286;27;97943;-29
2023/03/26 07:53:55;;;;;;;1.33;0.60;;;;;;;8.33;94.45;100326.63;5034238;28;101325;-31
2023/03/26 07:56:39;;;;;;;2.85;1.15;;;;;;;8.35;93.94;100333.66;5035512;28;96524;-29
2023/03/26 07:59:19;;;;;;;4.72;1.85;;;;;;;8.34;93.93;100325.66;5036928;28;96472;-29
2023/03/26 08:01:48;;;;;;;1.27;0.88;;;;;;;8.30;94.56;100333.06;5034480;28;100960;-29
2023/03/26 08:04:43;;;;;;;3.35;1.80;;;;;;;8.28;95.34;100327.75;5036238;27;99533;-29
2023/03/26 08:07:25;;;;;;;2.72;1.38;;;;;;;8.26;95.46;100328.81;5035411;28;96563;-29
2023/03/26 08:10:12;;;;;;;7.43;1.80;;;;;;;8.24;95.40;100328.03;5035368;28;96800;-29
2023/03/26 08:12:56;;;;;;;4.20;1.45;;;;;;;8.22;95.77;100327.25;5036409;28;98067;-29
2023/03/26 08:15:28;;;;;;;1.58;0.98;;;;;;;8.23;95.75;100326.31;5034807;28;101284;-28
2023/03/26 08:18:01;;;;;;;4.97;0.93;;;;;;;8.20;95.41;100324.66;5035309;28;96578;-29
2023/03/26 08:20:30;;;;;;;1.35;0.55;;;;;;;8.25;95.20;100327.09;5035596;28;96804;-29
2023/03/26 08:23:23;;;;;;;2.45;0.80;;;;;;;8.21;95.86;100321.00;5036122;27;97925;-29
2023/03/26 08:26:12;;;;;;;2.55;1.13;;;;;;;8.25;95.96;100322.56;5034712;27;101503;-29
2023/03/26 08:28:58;;;;;;;4.43;0.98;;;;;;;8.28;96.04;100325.06;5034298;28;96608;-29
2023/03/26 08:31:37;;;;;;;1.08;0.73;;;;;;;8.32;96.15;100319.47;5034960;28;96704;-28
2023/03/26 08:34:03;;;;;;;1.20;0.93;;;;;;;8.29;96.24;100316.03;5034509;28;101495;-29
2023/03/26 08:36:29;;;;;;;2.47;1.20;;;;;;;8.32;95.97;100312.25;5034371;28;100551;-29
2023/03/26 08:38:56;;;;;;;2.05;1.10;;;;;;;8.36;95.54;100313.78;5036090;28;96556;-28
2023/03/26 08:41:41;;;;;;;3.17;0.80;;;;;;;8.41;95.61;100321.66;5035861;27;96817;-29
2023/03/26 08:44:28;;;;;;;1.92;1.10;;;;;;;8.48;94.91;100317.59;5034339;28;100874;-29
2023/03/26 08:47:31;;;;;;;2.63;1.08;;;;;;;8.51;94.35;100317.44;5034646;28;101012;-30
2023/03/26 08:50:08;;;;;;;1.08;0.88;;;;;;;8.57;94.21;100324.28;5035734;28;97741;-28
2023/03/26 08:53:14;;;;;;;8.18;1.40;;;;;;;8.60;94.56;100322.25;5036256;27;96593;-29
2023/03/26 08:56:00;;;;;;;0.85;0.52;;;;;;;8.61;94.62;100323.13;5013753;27;97907;-29
2023/03/26 08:58:50;;;;;;;3.25;1.17;;;;;;;8.63;94.50;100319.38;5034121;28;100919;-29
2023/03/26 09:01:22;;;;;;;2.05;0.82;;;;;;;8.64;94.10;100323.78;5036020;27;96659;-29
2023/03/26 09:04:11;;;;;;;2.45;1.45;;;;;;;8.67;94.56;100322.75;5035721;27;96665;-29
2023/03/26 09:06:48;;;;;;;4.25;2.22;;;;;;;8.66;94.31;100321.00;5035031;27;97972;-29
2023/03/26 09:09:50;;;;;;;9.65;3.13;;;;;;;8.65;95.99;100312.06;5035492;27;97854;-28
2023/03/26 09:12:40;;;;;;;10.38;3.92;;;;;;;8.67;95.01;100317.34;5035953;28;96520;-30
2023/03/26 09:15:11;;;;;;;6.38;3.10;;;;;;;8.66;95.44;100321.00;5034510;28;96718;-29
2023/03/26 09:17:47;;;;;;;4.15;2.15;;;;;;;8.65;95.93;100327.34;5035705;27;97505;-29
2023/03/26 09:20:37;;;;;;;5.38;1.80;;;;;;;8.69;95.22;100323.50;5035353;27;97820;-29
2023/03/26 09:23:24;;;;;;;1.45;0.93;;;;;;;8.74;95.58;100320.53;5035233;28;96523;-29
2023/03/26 09:26:01;;;;;;;1.70;1.17;;;;;;;8.78;95.15;100325.66;5035511;28;96759;-29
2023/03/26 09:29:04;;;;;;;2.53;1.05;;;;;;;8.80;95.18;100328.25;5033450;28;99358;-29
2023/03/26 09:31:55;;;;;;;3.35;1.30;;;;;;;8.84;94.29;100322.56;5034914;28;97825;-29
2023/03/26 09:34:30;;;;;;;1.20;1.10;;;;;;;8.86;95.22;100330.56;5034000;28;96668;-28
2023/03/26 09:37:10;;;;;;;0.93;0.85;;;;;;;8.83;95.58;100328.91;5033790;28;96700;-28
2023/03/26 09:39:44;;;;;;;5.57;1.40;;;;;;;8.86;95.23;100325.16;5033487;28;100940;-29
2023/03/26 09:42:22;;;;;;;3.38;1.00;;;;;;;8.94;95.64;100333.66;5033883;28;100802;-30
2023/03/26 09:45:14;;;;;;;3.25;0.77;;;;;;;8.93;95.10;100321.97;5033953;28;96820;-29
2023/03/26 09:48:07;;;;;;;1.17;0.82;;;;;;;8.98;95.42;100328.91;5033724;28;96630;-28
2023/03/26 09:50:57;;;;;;;3.13;1.98;;;;;;;9.09;94.83;100337.22;5034185;27;99086;-28
2023/03/26 09:53:41;;;;;;;2.40;1.52;;;;;;;9.19;94.46;100345.59;5033344;28;100889;-29
2023/03/26 09:56:12;;;;;;;0.98;0.85;;;;;;;9.19;94.19;100348.31;5035112;27;96613;-28
2023/03/26 09:58:58;;;;;;;1.20;0.73;;;;;;;9.16;94.27;100341.25;5034931;27;96774;-28
2023/03/26 10:01:40;;;;;;;0.63;0.63;;;;;;;9.13;94.01;100338.75;5012645;27;97966;-31
2023/03/26 10:04:36;;;;;;;;;;;;;;;9.21;94.35;100343.66;5035309;27;98313;-29
2023/03/26 10:07:23;;;;;;;2.05;0.75;;;;;;;9.22;94.16;100348.97;5030025;28;96820;-29
2023/03/26 10:10:26;;;;;;;0.95;0.80;;;;;;;9.26;93.93;100350.50;5035307;28;96617;-30
2023/03/26 10:12:58;;;;;;;4.45;1.02;;;;;;;9.28;94.24;100358.53;5034533;28;98417;-28
2023/03/26 10:15:32;;;;;;;1.05;0.70;;;;;;;9.26;94.09;100355.91;5034450;28;98530;-30
2023/03/26 10:18:18;;;;;;;2.42;1.15;;;;;;;9.26;94.53;100364.03;5034561;27;96604;-29
2023/03/26 10:20:53;;;;;;;1.70;0.98;;;;;;;9.25;94.76;100362.28;5038346;27;96660;-31
2023/03/26 10:23:36;;;;;;;3.10;0.77;;;;;;;9.25;94.86;100372.25;5036703;28;101673;-29
2023/03/26 10:26:26;;;;;;;2.67;0.95;;;;;;;9.22;94.46;100367.88;5036449;27;101000;-28
2023/03/26 10:28:51;;;;;;;1.27;0.68;;;;;;;9.14;93.87;100375.63;5036857;28;96613;-29
2023/03/26 10:31:41;;;;;;;1.08;0.70;;;;;;;9.09;94.48;100381.31;5038354;28;96830;-30
2023/03/26 10:34:31;;;;;;;2.50;0.75;;;;;;;9.08;94.26;100378.69;5037664;28;97430;-29
2023/03/26 10:37:09;;;;;;;1.88;0.70;;;;;;;9.06;94.34;100383.34;5038391;28;98326;-29
2023/03/26 10:39:49;;;;;;;2.20;1.17;;;;;;;9.02;94.19;100387.19;5036640;28;96781;-29
2023/03/26 10:42:39;;;;;;;2.30;1.13;;;;;;;8.97;94.55;100392.03;5037901;27;96611;-29
2023/03/26 10:45:30;;;;;;;7.95;1.30;;;;;;;8.92;94.99;100395.88;5035848;27;101208;-28
2023/03/26 10:48:32;;;;;;;3.05;1.40;;;;;;;8.93;94.96;100397.59;5037990;27;97437;-29
2023/03/26 10:51:39;;;;;;;2.85;1.55;;;;;;;8.93;95.13;100391.31;5038104;28;96503;-29
2023/03/26 10:54:28;;;;;;;1.52;1.13;;;;;;;8.91;95.21;100401.34;5021571;28;96943;-29
2023/03/26 10:56:54;;;;;;;2.30;1.15;;;;;;;8.89;95.02;100403.28;5035877;28;98238;-29
2023/03/26 10:59:20;;;;;;;3.10;1.38;;;;;;;8.86;94.91;100404.34;5035950;28;101410;-28
2023/03/26 11:01:50;;;;;;;4.20;1.90;;;;;;;8.86;94.48;100415.16;5037638;27;96436;-29
2023/03/26 11:04:43;;;;;;;1.80;1.33;;;;;;;8.81;95.61;100403.75;5038063;27;96732;-29
2023/03/26 11:07:25;;;;;;;2.13;1.67;;;;;;;8.80;95.97;100415.53;5037567;28;97544;-29
2023/03/26 11:10:05;;;;;;;3.42;1.83;;;;;;;8.85;96.13;100418.81;5035797;28;100682;-29
2023/03/26 11:12:47;;;;;;;3.92;1.92;;;;;;;8.88;95.62;100418.63;5035564;28;96645;-29
2023/03/26 11:15:19;;;;;;;4.53;1.45;;;;;;;8.79;95.49;100418.31;5038069;27;96741;-29
2023/03/26 11:17:57;;;;;;;6.95;1.30;;;;;;;8.72;95.31;100425.91;5036861;27;98191;-29
2023/03/26 11:20:28;;;;;;;3.33;1.17;;;;;;;8.75;95.79;100425.75;5035930;28;100858;-28
2023/03/26 11:23:08;;;;;;;1.73;0.93;;;;;;;8.74;95.15;100421.31;5035912;28;96620;-28
2023/03/26 11:25:39;;;;;;;8.73;1.60;;;;;;;8.75;94.97;100428.47;5035998;28;96794;-29
2023/03/26 11:28:14;;;;;;;2.20;0.95;;;;;;;8.69;95.40;100426.13;5034495;27;101629;-29
2023/03/26 11:31:04;;;;;;;2.53;0.38;;;;;;;8.78;95.66;100444.47;5035997;28;100723;-29
2023/03/26 11:33:36;;;;;;;1.98;0.80;;;;;;;8.75;94.80;100441.06;5037164;28;96790;-28
2023/03/26 11:36:06;;;;;;;2.08;0.95;;;;;;;8.68;94.71;100438.75;5035856;28;96759;-29
2023/03/26 11:38:45;;;;;;;3.03;0.93;;;;;;;8.69;95.08;100447.72;5036253;28;99702;-29
2023/03/26 11:41:19;;;;;;;5.68;0.98;;;;;;;8.66;95.34;100456.00;5036921;27;97814;-29
2023/03/26 11:43:49;;;;;;;2.33;0.98;;;;;;;8.70;95.21;100458.44;5036946;27;96584;-29
2023/03/26 11:46:19;;;;;;;1.20;0.80;;;;;;;8.66;94.81;100456.00;5037016;27;96746;-29
2023/03/26 11:48:48;;;;;;;2.85;1.05;;;;;;;8.60;94.89;100453.66;5035113;28;102427;-29
2023/03/26 11:51:17;;;;;;;3.72;1.15;;;;;;;8.56;94.77;100458.38;5035199;28;101102;-29
2023/03/26 11:53:45;;;;;;;2.25;0.85;;;;;;;8.56;94.58;100458.38;5036883;28;96601;-30
2023/03/26 11:56:29;;;;;;;0.50;0.40;;;;;;;8.62;95.19;100468.81;5035718;28;96938;-29
2023/03/26 11:59:07;;;;;;;2.28;0.98;;;;;;;8.68;94.77;100476.56;5036708;28;98460;-29